sensor_id;sensor_type;location;lat;lon;timestamp;pressure;altitude;pressure_sealevel;temperature;humidity
47726;BME280;33483;48.294;16.388;2023-04-28T00:02:00;99963.19;;;4.95;100.00
47726;BME280;33483;48.294;16.388;2023-04-28T00:04:28;99957.81;;;4.86;100.00
47726;BME280;33483;48.294;16.388;2023-04-28T00:06:55;99956.78;;;4.83;100.00
47726;BME280;33483;48.294;16.388;2023-04-28T00:09:22;99953.28;;;4.83;100.00
47726;BME280;33483;48.294;16.388;2023-04-28T00:11:49;99946.97;;;4.77;100.00
47726;BME280;33483;48.294;16.388;2023-04-28T00:14:17;99951.06;;;4.67;100.00
47726;BME280;33483;48.294;16.388;2023-04-28T00:16:44;99947.47;;;4.60;100.00
47726;BME280;33483;48.294;16.388;2023-04-28T00:19:12;99946.66;;;4.54;100.00
47726;BME280;33483;48.294;16.388;2023-04-28T00:21:39;99945.47;;;4.61;100.00
47726;BME280;33483;48.294;16.388;2023-04-28T00:24:06;99953.91;;;4.57;100.00
47726;BME280;33483;48.294;16.388;2023-04-28T00:26:33;99950.88;;;4.55;100.00
47726;BME280;33483;48.294;16.388;2023-04-28T00:29:00;99943.63;;;4.52;100.00
47726;BME280;33483;48.294;16.388;2023-04-28T00:31:27;99948.72;;;4.59;100.00
47726;BME280;33483;48.294;16.388;2023-04-28T00:33:55;99946.25;;;4.62;100.00
47726;BME280;33483;48.294;16.388;2023-04-28T00:36:22;99944.72;;;4.60;100.00
47726;BME280;33483;48.294;16.388;2023-04-28T00:38:51;99932.66;;;4.73;100.00
47726;BME280;33483;48.294;16.388;2023-04-28T00:41:20;99935.41;;;4.73;100.00
47726;BME280;33483;48.294;16.388;2023-04-28T00:43:48;99931.75;;;4.61;100.00
47726;BME280;33483;48.294;16.388;2023-04-28T00:46:20;99933.41;;;4.53;100.00
47726;BME280;33483;48.294;16.388;2023-04-28T00:48:51;99938.22;;;4.43;100.00
47726;BME280;33483;48.294;16.388;2023-04-28T00:51:18;99930.97;;;4.40;100.00
47726;BME280;33483;48.294;16.388;2023-04-28T00:53:47;99929.53;;;4.45;100.00
47726;BME280;33483;48.294;16.388;2023-04-28T00:56:13;99928.69;;;4.39;100.00
47726;BME280;33483;48.294;16.388;2023-04-28T00:58:41;99927.28;;;4.29;100.00
47726;BME280;33483;48.294;16.388;2023-04-28T01:01:10;99923.31;;;4.30;100.00
47726;BME280;33483;48.294;16.388;2023-04-28T01:03:38;99927.28;;;4.29;100.00
47726;BME280;33483;48.294;16.388;2023-04-28T01:06:08;99932.84;;;4.34;100.00
47726;BME280;33483;48.294;16.388;2023-04-28T01:08:37;99932.84;;;4.34;100.00
47726;BME280;33483;48.294;16.388;2023-04-28T01:11:09;99933.81;;;4.31;100.00
47726;BME280;33483;48.294;16.388;2023-04-28T01:13:59;99925.78;;;4.28;100.00
47726;BME280;33483;48.294;16.388;2023-04-28T01:16:29;99930.22;;;4.25;100.00
47726;BME280;33483;48.294;16.388;2023-04-28T01:18:59;99926.25;;;4.26;100.00
47726;BME280;33483;48.294;16.388;2023-04-28T01:21:31;99928.41;;;4.37;100.00
47726;BME280;33483;48.294;16.388;2023-04-28T01:24:04;99928.38;;;4.51;100.00
47726;BME280;33483;48.294;16.388;2023-04-28T01:26:31;99925.66;;;4.51;100.00
47726;BME280;33483;48.294;16.388;2023-04-28T01:29:00;99920.34;;;4.48;100.00
47726;BME280;33483;48.294;16.388;2023-04-28T01:31:27;99924.59;;;4.49;100.00
47726;BME280;33483;48.294;16.388;2023-04-28T01:33:57;99908.53;;;4.42;100.00
47726;BME280;33483;48.294;16.388;2023-04-28T01:36:24;99914.66;;;4.51;100.00
47726;BME280;33483;48.294;16.388;2023-04-28T01:38:53;99914.50;;;4.40;100.00
47726;BME280;33483;48.294;16.388;2023-04-28T01:41:20;99915.81;;;4.45;100.00
47726;BME280;33483;48.294;16.388;2023-04-28T01:43:48;99909.44;;;4.53;100.00
47726;BME280;33483;48.294;16.388;2023-04-28T01:46:15;99909.56;;;4.44;100.00
47726;BME280;33483;48.294;16.388;2023-04-28T01:48:42;99907.69;;;4.36;100.00
47726;BME280;33483;48.294;16.388;2023-04-28T01:51:11;99910.56;;;4.27;100.00
47726;BME280;33483;48.294;16.388;2023-04-28T01:53:38;99919.91;;;4.20;100.00
47726;BME280;33483;48.294;16.388;2023-04-28T01:56:06;99909.78;;;4.12;100.00
47726;BME280;33483;48.294;16.388;2023-04-28T01:58:34;99914.94;;;4.04;100.00
47726;BME280;33483;48.294;16.388;2023-04-28T02:01:02;99908.28;;;3.96;100.00
47726;BME280;33483;48.294;16.388;2023-04-28T02:03:29;99915.19;;;4.06;100.00
47726;BME280;33483;48.294;16.388;2023-04-28T02:05:57;99907.72;;;4.07;100.00
47726;BME280;33483;48.294;16.388;2023-04-28T02:08:26;99911.41;;;4.04;100.00
47726;BME280;33483;48.294;16.388;2023-04-28T02:10:53;99908.88;;;4.00;100.00
47726;BME280;33483;48.294;16.388;2023-04-28T02:13:20;99910.84;;;4.00;100.00
47726;BME280;33483;48.294;16.388;2023-04-28T02:15:51;99917.38;;;4.02;100.00
47726;BME280;33483;48.294;16.388;2023-04-28T02:18:20;99911.13;;;4.02;100.00
47726;BME280;33483;48.294;16.388;2023-04-28T02:20:47;99912.63;;;4.03;100.00
47726;BME280;33483;48.294;16.388;2023-04-28T02:23:14;99903.97;;;4.04;100.00
47726;BME280;33483;48.294;16.388;2023-04-28T02:25:41;99904.69;;;4.05;100.00
47726;BME280;33483;48.294;16.388;2023-04-28T02:28:11;99908.47;;;3.93;100.00
47726;BME280;33483;48.294;16.388;2023-04-28T02:30:38;99904.25;;;3.92;100.00
47726;BME280;33483;48.294;16.388;2023-04-28T02:33:08;99908.38;;;3.87;100.00
47726;BME280;33483;48.294;16.388;2023-04-28T02:35:36;99903.84;;;3.84;100.00
47726;BME280;33483;48.294;16.388;2023-04-28T02:38:03;99905.66;;;3.87;100.00
47726;BME280;33483;48.294;16.388;2023-04-28T02:40:33;99899.44;;;3.87;100.00
47726;BME280;33483;48.294;16.388;2023-04-28T02:43:00;99906.69;;;3.90;100.00
47726;BME280;33483;48.294;16.388;2023-04-28T02:45:27;99907.66;;;3.87;100.00
47726;BME280;33483;48.294;16.388;2023-04-28T02:47:54;99908.75;;;3.80;100.00
47726;BME280;33483;48.294;16.388;2023-04-28T02:50:21;99906.59;;;3.84;100.00
47726;BME280;33483;48.294;16.388;2023-04-28T02:52:48;99910.56;;;3.83;100.00
47726;BME280;33483;48.294;16.388;2023-04-28T02:55:15;99905.19;;;3.89;100.00
47726;BME280;33483;48.294;16.388;2023-04-28T02:57:51;99901.50;;;3.92;100.00
47726;BME280;33483;48.294;16.388;2023-04-28T03:00:18;99896.38;;;3.99;100.00
47726;BME280;33483;48.294;16.388;2023-04-28T03:02:48;99899.88;;;4.00;100.00
47726;BME280;33483;48.294;16.388;2023-04-28T03:05:17;99893.91;;;4.01;100.00
47726;BME280;33483;48.294;16.388;2023-04-28T03:07:45;99894.69;;;4.02;100.00
47726;BME280;33483;48.294;16.388;2023-04-28T03:10:12;99897.03;;;3.94;100.00
47726;BME280;33483;48.294;16.388;2023-04-28T03:12:40;99888.75;;;3.89;100.00
47726;BME280;33483;48.294;16.388;2023-04-28T03:15:07;99886.38;;;3.82;100.00
47726;BME280;33483;48.294;16.388;2023-04-28T03:17:36;99886.75;;;3.75;100.00
47726;BME280;33483;48.294;16.388;2023-04-28T03:20:07;99880.41;;;3.69;100.00
47726;BME280;33483;48.294;16.388;2023-04-28T03:22:35;99882.75;;;3.61;100.00
47726;BME280;33483;48.294;16.388;2023-04-28T03:25:03;99873.03;;;3.60;100.00
47726;BME280;33483;48.294;16.388;2023-04-28T03:27:35;99875.97;;;3.57;100.00
47726;BME280;33483;48.294;16.388;2023-04-28T03:30:04;99880.13;;;3.52;100.00
47726;BME280;33483;48.294;16.388;2023-04-28T03:32:32;99878.03;;;3.47;100.00
47726;BME280;33483;48.294;16.388;2023-04-28T03:34:59;99874.84;;;3.49;100.00
47726;BME280;33483;48.294;16.388;2023-04-28T03:37:28;99874.84;;;3.49;100.00
47726;BME280;33483;48.294;16.388;2023-04-28T03:39:55;99868.13;;;3.50;100.00
47726;BME280;33483;48.294;16.388;2023-04-28T03:42:24;99878.31;;;3.49;100.00
47726;BME280;33483;48.294;16.388;2023-04-28T03:45:14;99874.25;;;3.44;100.00
47726;BME280;33483;48.294;16.388;2023-04-28T03:47:42;99878.22;;;3.43;100.00
47726;BME280;33483;48.294;16.388;2023-04-28T03:50:09;99877.19;;;3.41;100.00
47726;BME280;33483;48.294;16.388;2023-04-28T03:52:36;99886.91;;;3.42;100.00
47726;BME280;33483;48.294;16.388;2023-04-28T03:55:05;99873.31;;;3.47;100.00
47726;BME280;33483;48.294;16.388;2023-04-28T03:57:33;99881.94;;;3.55;100.00
47726;BME280;33483;48.294;16.388;2023-04-28T04:00:00;99878.81;;;3.62;100.00
47726;BME280;33483;48.294;16.388;2023-04-28T04:02:30;99878.63;;;3.66;100.00
47726;BME280;33483;48.294;16.388;2023-04-28T04:04:58;99883.91;;;3.69;100.00
47726;BME280;33483;48.294;16.388;2023-04-28T04:07:26;99889.38;;;3.84;100.00
47726;BME280;33483;48.294;16.388;2023-04-28T04:09:53;99895.81;;;3.95;100.00
47726;BME280;33483;48.294;16.388;2023-04-28T04:12:20;99888.25;;;4.05;100.00
47726;BME280;33483;48.294;16.388;2023-04-28T04:14:47;99885.78;;;4.21;100.00
47726;BME280;33483;48.294;16.388;2023-04-28T04:17:17;99883.75;;;4.36;100.00
47726;BME280;33483;48.294;16.388;2023-04-28T04:19:44;99886.94;;;4.49;100.00
47726;BME280;33483;48.294;16.388;2023-04-28T04:22:11;99880.91;;;4.66;100.00
47726;BME280;33483;48.294;16.388;2023-04-28T04:24:38;99885.53;;;4.74;100.00
47726;BME280;33483;48.294;16.388;2023-04-28T04:27:06;99884.44;;;4.86;100.00
47726;BME280;33483;48.294;16.388;2023-04-28T04:29:36;99886.03;;;4.93;100.00
47726;BME280;33483;48.294;16.388;2023-04-28T04:32:12;99881.88;;;5.03;100.00
47726;BME280;33483;48.294;16.388;2023-04-28T04:34:41;99883.94;;;5.08;100.00
47726;BME280;33483;48.294;16.388;2023-04-28T04:37:09;99886.34;;;5.20;100.00
47726;BME280;33483;48.294;16.388;2023-04-28T04:39:44;99876.34;;;5.43;100.00
47726;BME280;33483;48.294;16.388;2023-04-28T04:42:15;99871.94;;;5.51;100.00
47726;BME280;33483;48.294;16.388;2023-04-28T04:45:11;99875.28;;;5.60;100.00
47726;BME280;33483;48.294;16.388;2023-04-28T04:47:39;99870.97;;;5.80;100.00
47726;BME280;33483;48.294;16.388;2023-04-28T04:50:06;99873.63;;;5.94;100.00
47726;BME280;33483;48.294;16.388;2023-04-28T04:52:33;99872.38;;;5.95;100.00
47726;BME280;33483;48.294;16.388;2023-04-28T04:55:00;99859.72;;;6.09;100.00
47726;BME280;33483;48.294;16.388;2023-04-28T04:57:28;99872.34;;;6.26;100.00
47726;BME280;33483;48.294;16.388;2023-04-28T05:00:08;99866.94;;;6.37;100.00
47726;BME280;33483;48.294;16.388;2023-04-28T05:02:36;99868.47;;;6.44;100.00
47726;BME280;33483;48.294;16.388;2023-04-28T05:05:04;99874.59;;;6.64;100.00
47726;BME280;33483;48.294;16.388;2023-04-28T05:07:49;99875.13;;;6.68;100.00
47726;BME280;33483;48.294;16.388;2023-04-28T05:10:16;99860.16;;;6.80;100.00
47726;BME280;33483;48.294;16.388;2023-04-28T05:12:44;99865.47;;;6.90;100.00
47726;BME280;33483;48.294;16.388;2023-04-28T05:15:16;99871.53;;;7.05;100.00
47726;BME280;33483;48.294;16.388;2023-04-28T05:17:56;99872.09;;;7.20;100.00
47726;BME280;33483;48.294;16.388;2023-04-28T05:20:25;99876.19;;;7.41;100.00
47726;BME280;33483;48.294;16.388;2023-04-28T05:22:52;99872.94;;;7.59;100.00
47726;BME280;33483;48.294;16.388;2023-04-28T05:25:19;99872.47;;;7.93;100.00
47726;BME280;33483;48.294;16.388;2023-04-28T05:27:46;99879.25;;;8.20;100.00
47726;BME280;33483;48.294;16.388;2023-04-28T05:30:13;99877.75;;;8.41;100.00
47726;BME280;33483;48.294;16.388;2023-04-28T05:32:41;99868.69;;;8.57;100.00
47726;BME280;33483;48.294;16.388;2023-04-28T05:35:08;99866.59;;;8.85;100.00
47726;BME280;33483;48.294;16.388;2023-04-28T05:37:36;99867.22;;;9.13;100.00
47726;BME280;33483;48.294;16.388;2023-04-28T05:40:04;99866.06;;;9.44;100.00
47726;BME280;33483;48.294;16.388;2023-04-28T05:42:32;99866.03;;;9.55;100.00
47726;BME280;33483;48.294;16.388;2023-04-28T05:45:01;99861.94;;;9.62;89.97
47726;BME280;33483;48.294;16.388;2023-04-28T05:47:29;99863.72;;;9.59;87.88
47726;BME280;33483;48.294;16.388;2023-04-28T05:49:57;99864.63;;;9.73;87.40
47726;BME280;33483;48.294;16.388;2023-04-28T05:52:24;99871.59;;;9.85;83.61
47726;BME280;33483;48.294;16.388;2023-04-28T05:54:52;99872.03;;;9.94;82.53
47726;BME280;33483;48.294;16.388;2023-04-28T05:57:19;99870.69;;;10.01;86.02
47726;BME280;33483;48.294;16.388;2023-04-28T05:59:49;99865.41;;;10.03;82.65
47726;BME280;33483;48.294;16.388;2023-04-28T06:02:16;99876.91;;;10.18;79.01
47726;BME280;33483;48.294;16.388;2023-04-28T06:04:46;99868.63;;;10.42;77.03
47726;BME280;33483;48.294;16.388;2023-04-28T06:07:16;99871.44;;;10.61;75.79
47726;BME280;33483;48.294;16.388;2023-04-28T06:09:43;99874.34;;;10.74;77.43
47726;BME280;33483;48.294;16.388;2023-04-28T06:12:10;99862.59;;;10.86;71.72
47726;BME280;33483;48.294;16.388;2023-04-28T06:14:38;99864.22;;;11.38;68.09
47726;BME280;33483;48.294;16.388;2023-04-28T06:17:07;99865.88;;;11.65;68.00
47726;BME280;33483;48.294;16.388;2023-04-28T06:19:34;99861.13;;;11.60;66.15
47726;BME280;33483;48.294;16.388;2023-04-28T06:22:04;99860.31;;;11.65;68.00
47726;BME280;33483;48.294;16.388;2023-04-28T06:24:31;99857.25;;;11.68;65.55
47726;BME280;33483;48.294;16.388;2023-04-28T06:27:05;99866.03;;;11.72;65.91
47726;BME280;33483;48.294;16.388;2023-04-28T06:29:36;99857.22;;;11.87;64.58
47726;BME280;33483;48.294;16.388;2023-04-28T06:32:04;99863.09;;;12.15;63.84
47726;BME280;33483;48.294;16.388;2023-04-28T06:34:31;99860.84;;;12.26;62.39
47726;BME280;33483;48.294;16.388;2023-04-28T06:36:59;99862.72;;;13.02;60.88
47726;BME280;33483;48.294;16.388;2023-04-28T06:39:26;99863.75;;;13.38;58.06
47726;BME280;33483;48.294;16.388;2023-04-28T06:41:53;99865.09;;;13.58;56.18
47726;BME280;33483;48.294;16.388;2023-04-28T06:44:22;99854.06;;;14.76;54.10
47726;BME280;33483;48.294;16.388;2023-04-28T06:46:49;99856.13;;;15.62;50.40
47726;BME280;33483;48.294;16.388;2023-04-28T06:49:16;99848.47;;;15.62;49.32
47726;BME280;33483;48.294;16.388;2023-04-28T06:51:43;99851.63;;;15.59;47.29
47726;BME280;33483;48.294;16.388;2023-04-28T06:54:11;99844.44;;;14.85;48.26
47726;BME280;33483;48.294;16.388;2023-04-28T06:56:42;99838.44;;;14.52;50.24
47726;BME280;33483;48.294;16.388;2023-04-28T06:59:09;99830.28;;;14.26;50.77
47726;BME280;33483;48.294;16.388;2023-04-28T07:01:37;99836.66;;;13.93;51.42
47726;BME280;33483;48.294;16.388;2023-04-28T07:04:04;99832.22;;;14.18;52.82
47726;BME280;33483;48.294;16.388;2023-04-28T07:06:34;99828.13;;;14.19;50.63
47726;BME280;33483;48.294;16.388;2023-04-28T07:09:01;99824.69;;;14.06;50.50
47726;BME280;33483;48.294;16.388;2023-04-28T07:11:28;99833.72;;;13.57;51.14
47726;BME280;33483;48.294;16.388;2023-04-28T07:13:55;99821.34;;;13.66;50.96
47726;BME280;33483;48.294;16.388;2023-04-28T07:16:22;99813.63;;;13.93;50.88
47726;BME280;33483;48.294;16.388;2023-04-28T07:18:52;99814.16;;;14.12;50.08
47726;BME280;33483;48.294;16.388;2023-04-28T07:21:22;99814.00;;;15.52;48.62
47726;BME280;33483;48.294;16.388;2023-04-28T07:23:49;99817.06;;;16.52;44.23
47726;BME280;33483;48.294;16.388;2023-04-28T07:26:16;99828.50;;;17.81;42.11
47726;BME280;33483;48.294;16.388;2023-04-28T07:28:43;99837.38;;;18.19;40.95
47726;BME280;33483;48.294;16.388;2023-04-28T07:31:10;99837.50;;;18.87;41.06
47726;BME280;33483;48.294;16.388;2023-04-28T07:33:39;99840.06;;;18.93;39.01
47726;BME280;33483;48.294;16.388;2023-04-28T07:36:07;99832.34;;;19.45;37.45
47726;BME280;33483;48.294;16.388;2023-04-28T07:38:34;99830.06;;;19.87;37.05
47726;BME280;33483;48.294;16.388;2023-04-28T07:41:04;99834.72;;;20.47;36.56
47726;BME280;33483;48.294;16.388;2023-04-28T07:43:35;99827.63;;;20.56;34.93
47726;BME280;33483;48.294;16.388;2023-04-28T07:46:02;99834.31;;;21.56;34.20
47726;BME280;33483;48.294;16.388;2023-04-28T07:48:29;99820.69;;;20.95;33.48
47726;BME280;33483;48.294;16.388;2023-04-28T07:53:58;99821.41;;;19.75;35.82
47726;BME280;33483;48.294;16.388;2023-04-28T07:56:28;99824.88;;;19.57;37.40
47726;BME280;33483;48.294;16.388;2023-04-28T07:58:55;99833.91;;;19.91;36.72
47726;BME280;33483;48.294;16.388;2023-04-28T08:04:34;99840.16;;;17.70;40.71
47726;BME280;33483;48.294;16.388;2023-04-28T08:07:09;99838.31;;;18.22;42.99
47726;BME280;33483;48.294;16.388;2023-04-28T08:09:36;99832.59;;;18.54;39.78
47726;BME280;33483;48.294;16.388;2023-04-28T08:12:06;99824.84;;;19.13;39.08
47726;BME280;33483;48.294;16.388;2023-04-28T08:14:33;99821.06;;;19.98;37.74
47726;BME280;33483;48.294;16.388;2023-04-28T08:17:00;99839.41;;;21.29;34.93
47726;BME280;33483;48.294;16.388;2023-04-28T08:19:30;99829.00;;;21.31;34.65
47726;BME280;33483;48.294;16.388;2023-04-28T08:21:57;99820.75;;;20.21;36.94
47726;BME280;33483;48.294;16.388;2023-04-28T08:24:25;99816.63;;;19.68;37.19
47726;BME280;33483;48.294;16.388;2023-04-28T08:26:56;99813.13;;;20.88;36.83
47726;BME280;33483;48.294;16.388;2023-04-28T08:29:23;99816.25;;;21.01;34.99
47726;BME280;33483;48.294;16.388;2023-04-28T08:31:53;99800.34;;;20.68;36.11
47726;BME280;33483;48.294;16.388;2023-04-28T08:34:23;99789.38;;;20.43;35.82
47726;BME280;33483;48.294;16.388;2023-04-28T08:36:51;99791.28;;;19.95;36.48
47726;BME280;33483;48.294;16.388;2023-04-28T08:39:20;99788.97;;;19.65;37.80
47726;BME280;33483;48.294;16.388;2023-04-28T08:41:49;99778.75;;;19.69;39.74
47726;BME280;33483;48.294;16.388;2023-04-28T08:44:17;99778.84;;;18.74;40.44
47726;BME280;33483;48.294;16.388;2023-04-28T08:46:45;99790.06;;;18.40;41.23
47726;BME280;33483;48.294;16.388;2023-04-28T08:49:16;99776.13;;;18.50;42.02
47726;BME280;33483;48.294;16.388;2023-04-28T08:51:45;99771.25;;;19.45;40.07
47726;BME280;33483;48.294;16.388;2023-04-28T08:54:14;99776.69;;;20.15;39.84
47726;BME280;33483;48.294;16.388;2023-04-28T08:56:53;99768.19;;;20.42;38.15
47726;BME280;33483;48.294;16.388;2023-04-28T08:59:21;99765.63;;;20.17;37.15
47726;BME280;33483;48.294;16.388;2023-04-28T09:01:49;99753.13;;;19.65;38.75
47726;BME280;33483;48.294;16.388;2023-04-28T09:04:16;99760.56;;;20.16;38.99
47726;BME280;33483;48.294;16.388;2023-04-28T09:06:47;99763.13;;;20.41;37.45
47726;BME280;33483;48.294;16.388;2023-04-28T09:09:24;99755.50;;;20.14;36.39
47726;BME280;33483;48.294;16.388;2023-04-28T09:14:28;99761.34;;;20.45;36.64
47726;BME280;33483;48.294;16.388;2023-04-28T09:16:56;99763.75;;;19.93;37.68
47726;BME280;33483;48.294;16.388;2023-04-28T09:19:32;99753.84;;;20.02;38.64
47726;BME280;33483;48.294;16.388;2023-04-28T09:22:03;99750.88;;;20.74;37.56
47726;BME280;33483;48.294;16.388;2023-04-28T09:24:51;99746.28;;;20.50;37.60
47726;BME280;33483;48.294;16.388;2023-04-28T09:27:24;99739.00;;;19.92;37.71
47726;BME280;33483;48.294;16.388;2023-04-28T09:29:52;99730.75;;;20.03;38.32
47726;BME280;33483;48.294;16.388;2023-04-28T09:32:20;99737.94;;;20.33;37.55
47726;BME280;33483;48.294;16.388;2023-04-28T09:34:49;99733.19;;;20.26;36.87
47726;BME280;33483;48.294;16.388;2023-04-28T09:37:17;99729.75;;;19.63;37.84
47726;BME280;33483;48.294;16.388;2023-04-28T09:39:46;99719.34;;;19.02;38.96
47726;BME280;33483;48.294;16.388;2023-04-28T09:45:01;99704.31;;;20.26;37.35
47726;BME280;33483;48.294;16.388;2023-04-28T09:47:29;99699.38;;;19.52;39.85
47726;BME280;33483;48.294;16.388;2023-04-28T09:50:04;99692.13;;;20.13;38.99
47726;BME280;33483;48.294;16.388;2023-04-28T09:52:33;99691.75;;;19.81;38.09
47726;BME280;33483;48.294;16.388;2023-04-28T09:55:04;99681.66;;;20.24;38.96
47726;BME280;33483;48.294;16.388;2023-04-28T09:57:32;99690.53;;;20.58;37.91
47726;BME280;33483;48.294;16.388;2023-04-28T10:00:00;99690.56;;;19.74;38.59
47726;BME280;33483;48.294;16.388;2023-04-28T10:02:30;99675.78;;;19.11;39.44
47726;BME280;33483;48.294;16.388;2023-04-28T10:05:09;99673.44;;;19.17;40.38
47726;BME280;33483;48.294;16.388;2023-04-28T10:07:38;99665.38;;;19.04;39.71
47726;BME280;33483;48.294;16.388;2023-04-28T10:10:06;99665.81;;;19.00;42.00
47726;BME280;33483;48.294;16.388;2023-04-28T10:12:34;99670.22;;;19.47;40.53
47726;BME280;33483;48.294;16.388;2023-04-28T10:15:05;99670.91;;;19.38;38.99
47726;BME280;33483;48.294;16.388;2023-04-28T10:17:33;99661.56;;;19.09;40.97
47726;BME280;33483;48.294;16.388;2023-04-28T10:20:02;99655.84;;;18.63;41.68
47726;BME280;33483;48.294;16.388;2023-04-28T10:27:53;99653.63;;;18.28;41.14
47726;BME280;33483;48.294;16.388;2023-04-28T10:30:21;99646.16;;;18.74;41.29
47726;BME280;33483;48.294;16.388;2023-04-28T10:40:38;99641.31;;;20.11;38.88
47726;BME280;33483;48.294;16.388;2023-04-28T10:43:12;99639.69;;;20.66;38.61
47726;BME280;33483;48.294;16.388;2023-04-28T10:48:51;99640.00;;;20.32;38.49
47726;BME280;33483;48.294;16.388;2023-04-28T10:58:50;99632.56;;;20.65;37.61
47726;BME280;33483;48.294;16.388;2023-04-28T11:03:49;99618.00;;;19.63;38.99
47726;BME280;33483;48.294;16.388;2023-04-28T11:06:27;99609.44;;;19.61;39.51
47726;BME280;33483;48.294;16.388;2023-04-28T11:08:55;99607.09;;;20.05;39.58
47726;BME280;33483;48.294;16.388;2023-04-28T11:11:25;99601.16;;;19.82;38.67
47726;BME280;33483;48.294;16.388;2023-04-28T11:13:54;99607.56;;;19.92;38.80
47726;BME280;33483;48.294;16.388;2023-04-28T11:16:22;99599.72;;;20.29;38.22
47726;BME280;33483;48.294;16.388;2023-04-28T11:18:54;99594.53;;;20.35;37.88
47726;BME280;33483;48.294;16.388;2023-04-28T11:21:22;99578.22;;;20.34;38.38
47726;BME280;33483;48.294;16.388;2023-04-28T11:23:50;99577.50;;;20.24;37.97
47726;BME280;33483;48.294;16.388;2023-04-28T11:26:17;99570.38;;;20.32;38.26
47726;BME280;33483;48.294;16.388;2023-04-28T11:28:50;99575.84;;;20.49;38.21
47726;BME280;33483;48.294;16.388;2023-04-28T11:31:18;99568.88;;;20.41;38.14
47726;BME280;33483;48.294;16.388;2023-04-28T11:33:54;99570.53;;;20.15;38.77
47726;BME280;33483;48.294;16.388;2023-04-28T11:36:26;99552.88;;;19.67;39.69
47726;BME280;33483;48.294;16.388;2023-04-28T11:38:54;99562.31;;;19.33;39.93
47726;BME280;33483;48.294;16.388;2023-04-28T11:41:22;99544.59;;;19.40;39.90
47726;BME280;33483;48.294;16.388;2023-04-28T11:43:50;99558.69;;;19.97;39.95
47726;BME280;33483;48.294;16.388;2023-04-28T11:46:17;99535.75;;;19.82;39.61
47726;BME280;33483;48.294;16.388;2023-04-28T11:48:58;99532.91;;;19.72;40.06
47726;BME280;33483;48.294;16.388;2023-04-28T11:51:33;99524.47;;;19.91;42.36
47726;BME280;33483;48.294;16.388;2023-04-28T11:54:01;99532.03;;;19.70;39.72
47726;BME280;33483;48.294;16.388;2023-04-28T11:56:29;99532.63;;;19.87;40.00
47726;BME280;33483;48.294;16.388;2023-04-28T11:59:03;99532.97;;;19.17;40.34
47726;BME280;33483;48.294;16.388;2023-04-28T12:01:31;99524.91;;;19.50;40.47
47726;BME280;33483;48.294;16.388;2023-04-28T12:03:59;99529.19;;;19.41;40.47
47726;BME280;33483;48.294;16.388;2023-04-28T12:06:28;99516.25;;;19.29;40.43
47726;BME280;33483;48.294;16.388;2023-04-28T12:08:55;99517.75;;;19.30;40.90
47726;BME280;33483;48.294;16.388;2023-04-28T12:11:23;99516.78;;;19.73;41.33
47726;BME280;33483;48.294;16.388;2023-04-28T12:14:09;99531.72;;;19.75;41.17
47726;BME280;33483;48.294;16.388;2023-04-28T12:16:40;99539.41;;;19.65;40.34
47726;BME280;33483;48.294;16.388;2023-04-28T12:19:11;99536.31;;;19.90;39.98
47726;BME280;33483;48.294;16.388;2023-04-28T12:21:38;99544.47;;;19.86;40.11
47726;BME280;33483;48.294;16.388;2023-04-28T12:24:16;99541.63;;;19.48;40.78
47726;BME280;33483;48.294;16.388;2023-04-28T12:26:43;99533.13;;;18.83;41.43
47726;BME280;33483;48.294;16.388;2023-04-28T12:32:00;99525.13;;;19.16;42.50
47726;BME280;33483;48.294;16.388;2023-04-28T12:34:27;99535.28;;;19.01;41.36
47726;BME280;33483;48.294;16.388;2023-04-28T12:36:55;99540.16;;;19.01;42.31
47726;BME280;33483;48.294;16.388;2023-04-28T12:39:22;99549.75;;;18.98;43.14
47726;BME280;33483;48.294;16.388;2023-04-28T12:41:50;99519.16;;;18.66;42.72
47726;BME280;33483;48.294;16.388;2023-04-28T12:44:20;99519.72;;;18.55;42.75
47726;BME280;33483;48.294;16.388;2023-04-28T12:46:48;99521.44;;;18.77;43.01
47726;BME280;33483;48.294;16.388;2023-04-28T12:49:18;99522.28;;;18.70;43.44
47726;BME280;33483;48.294;16.388;2023-04-28T12:51:45;99529.13;;;18.50;43.26
47726;BME280;33483;48.294;16.388;2023-04-28T12:54:14;99521.31;;;18.31;43.27
47726;BME280;33483;48.294;16.388;2023-04-28T12:56:41;99525.56;;;18.23;43.20
47726;BME280;33483;48.294;16.388;2023-04-28T12:59:09;99521.91;;;18.30;43.97
47726;BME280;33483;48.294;16.388;2023-04-28T13:01:36;99517.81;;;18.14;44.13
47726;BME280;33483;48.294;16.388;2023-04-28T13:04:06;99527.47;;;18.03;43.83
47726;BME280;33483;48.294;16.388;2023-04-28T13:06:35;99524.94;;;17.97;44.04
47726;BME280;33483;48.294;16.388;2023-04-28T13:09:03;99511.00;;;18.07;43.90
47726;BME280;33483;48.294;16.388;2023-04-28T13:11:33;99510.56;;;18.11;43.76
47726;BME280;33483;48.294;16.388;2023-04-28T13:14:00;99509.09;;;18.10;43.87
47726;BME280;33483;48.294;16.388;2023-04-28T13:16:27;99509.41;;;18.14;43.88
47726;BME280;33483;48.294;16.388;2023-04-28T13:18:55;99514.28;;;18.13;44.41
47726;BME280;33483;48.294;16.388;2023-04-28T13:21:23;99506.63;;;17.96;44.84
47726;BME280;33483;48.294;16.388;2023-04-28T13:23:52;99512.59;;;17.83;44.94
47726;BME280;33483;48.294;16.388;2023-04-28T13:26:19;99510.38;;;17.65;44.69
47726;BME280;33483;48.294;16.388;2023-04-28T13:28:50;99522.75;;;17.62;45.09
47726;BME280;33483;48.294;16.388;2023-04-28T13:31:18;99517.97;;;17.55;45.65
47726;BME280;33483;48.294;16.388;2023-04-28T13:33:45;99502.19;;;17.59;45.93
47726;BME280;33483;48.294;16.388;2023-04-28T13:36:13;99508.50;;;17.50;46.70
47726;BME280;33483;48.294;16.388;2023-04-28T13:38:40;99507.03;;;17.42;46.20
47726;BME280;33483;48.294;16.388;2023-04-28T13:41:09;99510.59;;;17.42;46.58